x

San Clemente Basin - 27nm Se Of San Clemente Is, Ca (46086) Wave Buoy

6:50 - Fri 23rd Jun 2017 All times are PDT. -7 hours from GMT.

  • Sig Wave height 6.2ft
  • Swell Direction
  • Peak Period 12s
  • Average Period 10s
  • Wind
    4mph, 7mph gusts
  • Sea Temp 64°f
  • Sea Pressure 1012.5mb
  • San Clemente Basin - 27nm Se Of San Clemente Is, Ca
  • San Clemente Basin - 27nm Se Of San Clemente Is, Ca

More Historic Weather Station data

Upgrade to MSW Pro to gain access to the past 30 days of data for over 8000 Wavebouys and Weather Stations around the globe.

Join Pro

Comparision Forecast

View Surf forecast
   
ven. 06/23 6:50 6ft 12s 10s 4 7 mph 1012.5mb 64f -
5:50 6.5ft 15s 10s 7 11 mph 1012mb 64f -
4:50 6ft 16s 10s 7 9 mph 1011.8mb 64f -
3:50 6ft 15s 10s  -  2 mph 1011.8mb 64f -
2:50 5.5ft 15s 9s 7 9 mph 1011.5mb 64f -
1:50 6ft 17s 10s 4 9 mph 1011.7mb 64f -
12:50 6ft 14s 10s 2 4 mph 1012mb 64f -
jeu. 06/22 11:50 6ft 14s 10s  -  2 mph 1012.1mb 64f -
10:50 6ft 14s 10s 2 7 mph 1012mb 64f -
9:50 6ft 14s 10s 2 7 mph 1011.8mb 64f -
8:50 5.5ft 15s 10s 2 4 mph 1011.2mb 64f -
7:50 5.5ft 15s 9s 7 9 mph 1010.5mb 64f -
6:50 5ft 15s 9s 4 7 mph 1010.3mb 64f -
5:50 5ft 15s  -  4 9 mph 1010.1mb 64f -
4:50 6ft 15s 10s 4 7 mph 1010.1mb 64f -
3:50 6ft 15s 8s 7 9 mph 1010.3mb 64f -
2:50 6ft 15s 8s 7 9 mph 1010.5mb 64f -
1:50 6.5ft 15s 8s 4 7 mph 1010.8mb 64f -
12:50 6ft 14s 8s 4 4 mph 1011.1mb 64f -
11:50 6.5ft 15s 8s 4 7 mph 1011.1mb 64f -
10:50 6.5ft 13s 8s 4 9 mph 1010.8mb 64f -
9:50 7ft 15s 8s 4 7 mph 1010.6mb 64f -
8:50 6.5ft 15s 8s 4 7 mph 1010.1mb 64f -
7:50 6ft 16s 8s 4 7 mph 1009.6mb 64f -
6:50 6ft 15s 8s 4 7 mph 1008.7mb 64f -
5:50 6ft 15s 8s 4 11 mph 1008mb 64f -
4:50 7ft 15s 8s 7 9 mph 1007.5mb 64f -
3:50 6ft 15s 8s 7 9 mph 1007.3mb 64f -
2:50 6ft 15s 8s 7 9 mph 1007.4mb 64f -
1:50 7ft 15s 8s 7 9 mph 1007.8mb 64f -
12:50 6.5ft 15s 8s 9 11 mph 1008mb 64f -
mer. 06/21 11:50 7ft 15s 8s 7 9 mph 1007.8mb 64f -
10:50 7ft 9s 8s 7 11 mph 1008mb 64f -
9:50 7ft 15s 8s 9 11 mph 1007.7mb 63f -
8:50 7ft 14s 8s 13 18 mph 1006.8mb 64f 80f
7:50 7ft 15s 8s 11 16 mph 1006.6mb 64f 80f
6:50 7ft 15s 8s 11 13 mph 1006.5mb 64f 76f
5:50 6.5ft 15s 7s 11 13 mph 1006.7mb 64f 76f
4:50 6.5ft 15s 7s 13 18 mph 1006.9mb 64f 75f
3:50 6.5ft 16s 7s 16 18 mph 1007.3mb 64f 80f
2:50 7ft 15s 7s 13 18 mph 1008mb 64f -
1:50 7ft 9s 7s 16 18 mph 1008.6mb 64f -
12:50 6ft 7s 7s 11 16 mph 1009.1mb 63f 61f
11:50 6ft 16s 7s 11 13 mph 1009.4mb 63f 60f
10:50 6ft 15s 7s 9 13 mph 1009.6mb 63f 60f
9:50 6ft 8s 7s 16 20 mph 1009.1mb 63f 60f
8:50 7ft 15s 8s 11 16 mph 1009.2mb 63f 60f
7:50 6ft 15s 7s 13 18 mph 1008.8mb 63f 60f
6:50 6ft 15s 8s 11 16 mph 1008.9mb 63f 60f
5:50 5.5ft 15s 7s 11 13 mph 1008.6mb 63f 59f
4:50 6ft 15s 7s 11 16 mph 1008.5mb 63f 60f
3:50 6ft 16s 7s 13 18 mph 1008.8mb 63f 60f
2:50 6ft 17s 7s 13 18 mph 1008.8mb 63f 60f
1:50 6ft 15s 7s 11 16 mph 1009.5mb 63f 60f
12:50 6ft 15s 7s 9 13 mph 1009.9mb 63f 60f
mar. 06/20 11:50 6ft 16s 7s 11 16 mph 1010.2mb 63f 61f
10:50 6ft 16s 7s 13 16 mph 1010.1mb 63f 61f
9:50 5.5ft 16s 7s 13 16 mph 1010.1mb 63f 61f
8:50 6ft 15s 6s 18 22 mph 1009.4mb 64f 61f
7:50 5.5ft 16s 6s 16 20 mph 1009.3mb 64f 61f
6:50 5.5ft 16s 6s 18 25 mph 1009mb 64f 62f
5:50 5ft 16s 6s 18 22 mph 1009.2mb 64f 61f
4:50 5ft 16s 6s 18 20 mph 1009.6mb 64f 62f
3:50 5ft 15s 6s 16 18 mph 1010.2mb 64f 61f
2:50 5ft 16s 7s 16 18 mph 1010.7mb 64f 62f
1:50 5ft 15s 6s 16 18 mph 1011.4mb 64f 62f
12:50 5ft 16s 7s 13 18 mph 1012mb 64f 61f
11:50 5ft 19s 7s 11 13 mph 1012.2mb 63f 61f
10:50 5ft 16s 7s 13 16 mph 1012.1mb 63f 61f
9:50 5.5ft 16s  -  11 16 mph 1011.9mb 63f 60f
8:50 5.5ft 16s 8s 11 13 mph 1012.1mb 63f 60f
7:50 5.5ft 9s 8s 9 11 mph 1012mb 63f 60f
6:50 5ft 10s 8s 9 11 mph 1011.3mb 63f 60f
5:50 4.5ft 13s 7s 9 11 mph 1011.2mb 63f 60f
4:50 4.5ft 10s 7s 11 13 mph 1010.3mb 63f 60f
3:50 4.5ft 16s 7s 11 13 mph 1010.3mb 63f 60f
2:50 5ft 10s 7s 11 13 mph 1010.6mb 63f 60f
1:50 5.5ft 10s 7s 2 7 mph 1011mb 64f 60f
12:50 5ft 19s 6s 4 7 mph 1011.5mb 64f 61f
lun. 06/19 11:50 5ft 16s 7s 4 7 mph 1011.5mb 64f 61f
10:50 5ft 10s 7s 9 11 mph 1011.5mb 64f 61f
9:50 5ft 16s 6s 11 13 mph 1011.4mb 64f 61f
8:50 4.5ft 19s 6s 13 16 mph 1010.4mb 64f 61f
7:50 4.5ft 16s 6s 13 16 mph 1010.2mb 64f 61f
6:50 4.5ft 10s 6s 16 20 mph 1009.7mb 64f 61f
5:50 4.5ft 9s 8s 13 16 mph 1009.5mb 65f 62f
4:50 4.5ft 10s 8s 11 16 mph 1009.8mb 64f 62f
3:50 4.5ft 9s 8s 9 13 mph 1010.3mb 64f 62f